Terminal Aerodrome Forecast
Issued by NWS

Home | Current Version | Previous Version | Text Only | Print | Product List | Glossary On
Versions: 1 2 3 4 5 6 7 8 9 10 11 12 13 14 15 16 17 18 19 20 21 22 23 24 25
382
FTUS43 KPAH 200520
TAFCGI
TAF
KCGI 200520Z 2006/2106 18012KT P6SM VCSH SCT025 BKN050
     FM201000 18013G19KT P6SM -SHRA SCT015 OVC025
     FM201300 19015G21KT P6SM VCSH OVC015
     FM201800 19017G26KT P6SM VCSH OVC020
     FM210000 18012KT P6SM VCSH OVC015=

USA.gov is the U.S. government's official web portal to all federal, state and local government web resources and services.